Time;durP1;ratioP1;P1;durP2;ratioP2;P2;SDS_P1;SDS_P2;PMS_P1;PMS_P2;Temp;Humidity;BMP_temperature;BMP_pressure;BME280_temperature;BME280_humidity;BME280_pressure;Samples;Min_cycle;Max_cycle;Signal;HPM_P1;HPM_P2
2021/07/08 00:00:57;;;;;;;3.00;0.89;;;;;;;21.54;51.30;101306.91;460850;113;931715;-77
2021/07/08 00:02:01;;;;;;;1.72;1.03;;;;;;;21.52;51.41;101304.41;462534;113;924012;-76
2021/07/08 00:03:05;;;;;;;2.75;0.93;;;;;;;21.51;51.51;101307.44;460761;113;926497;-78
2021/07/08 00:04:10;;;;;;;2.99;0.98;;;;;;;21.51;51.49;101305.50;461933;113;922967;-78
2021/07/08 00:05:15;;;;;;;1.73;0.92;;;;;;;21.51;51.37;101312.98;460486;113;922531;-77
2021/07/08 00:06:21;;;;;;;1.80;0.98;;;;;;;21.51;51.54;101315.77;461048;114;923191;-78
2021/07/08 00:07:24;;;;;;;2.51;0.79;;;;;;;21.48;51.55;101316.31;461162;114;922980;-76
2021/07/08 00:08:28;;;;;;;2.46;1.07;;;;;;;21.47;51.38;101314.64;460287;112;930409;-76
2021/07/08 00:09:32;;;;;;;2.76;0.92;;;;;;;21.44;51.73;101313.25;460941;114;930168;-77
2021/07/08 00:10:41;;;;;;;1.54;0.87;;;;;;;21.43;52.07;101317.12;458794;113;930024;-77
2021/07/08 00:11:44;;;;;;;2.35;0.91;;;;;;;21.42;52.01;101312.67;449756;116;922516;-77
2021/07/08 00:12:48;;;;;;;2.18;0.92;;;;;;;21.41;51.67;101316.55;459107;113;922726;-78
2021/07/08 00:13:52;;;;;;;1.52;0.75;;;;;;;21.40;51.75;101308.48;450939;116;922529;-78
2021/07/08 00:14:56;;;;;;;1.91;0.86;;;;;;;21.40;51.86;101312.09;450993;114;922877;-78
2021/07/08 00:16:00;;;;;;;2.80;1.03;;;;;;;21.40;51.79;101319.59;458117;113;924116;-78
2021/07/08 00:17:06;;;;;;;2.36;0.93;;;;;;;21.39;51.59;101318.75;457540;112;931715;-78
2021/07/08 00:18:12;;;;;;;3.11;1.07;;;;;;;21.39;51.49;101317.94;457872;114;931826;-78
2021/07/08 00:19:17;;;;;;;2.38;0.82;;;;;;;21.38;51.51;101327.36;457641;114;924053;-76
2021/07/08 00:20:24;;;;;;;2.08;0.86;;;;;;;21.36;51.38;101319.30;457014;113;923901;-78
2021/07/08 00:21:27;;;;;;;1.25;0.82;;;;;;;21.36;51.30;101327.62;461041;113;923976;-77
2021/07/08 00:22:31;;;;;;;2.69;1.35;;;;;;;21.35;51.27;101320.39;461703;114;924078;-78
2021/07/08 00:23:35;;;;;;;1.86;1.01;;;;;;;21.36;51.40;101324.01;462231;113;923810;-77
2021/07/08 00:24:38;;;;;;;3.55;0.90;;;;;;;21.35;51.35;101319.55;461486;113;933391;-77
2021/07/08 00:25:44;;;;;;;2.61;0.88;;;;;;;21.36;51.46;101321.23;461275;113;926098;-76
2021/07/08 00:26:48;;;;;;;3.69;0.91;;;;;;;21.35;51.86;101327.88;461520;113;925527;-77
2021/07/08 00:27:52;;;;;;;2.83;1.02;;;;;;;21.34;51.32;101332.59;460088;114;924515;-77
2021/07/08 00:28:55;;;;;;;2.30;0.91;;;;;;;21.34;51.72;101332.59;452622;116;924837;-74
2021/07/08 00:29:59;;;;;;;1.63;0.83;;;;;;;21.35;51.84;101327.88;451683;115;925725;-77
2021/07/08 00:31:03;;;;;;;3.31;0.96;;;;;;;21.34;52.07;101332.59;451377;117;924015;-78
2021/07/08 00:32:07;;;;;;;3.24;1.18;;;;;;;21.34;52.08;101335.36;451691;117;924086;-77
2021/07/08 00:33:12;;;;;;;2.99;1.16;;;;;;;21.34;51.89;101331.75;451501;115;924119;-77
2021/07/08 00:34:16;;;;;;;1.38;1.17;;;;;;;21.34;51.64;101337.30;450954;115;925269;-78
2021/07/08 00:35:19;;;;;;;3.11;1.07;;;;;;;21.33;51.55;101330.95;451646;117;925605;-77
2021/07/08 00:36:25;;;;;;;3.03;1.12;;;;;;;21.33;51.46;101330.95;451209;116;926396;-77
2021/07/08 00:37:28;;;;;;;1.24;1.09;;;;;;;21.33;51.38;101330.11;451189;115;924109;-77
2021/07/08 00:38:33;;;;;;;1.61;0.82;;;;;;;21.32;51.39;101328.43;450130;115;924535;-78
2021/07/08 00:39:37;;;;;;;2.69;0.86;;;;;;;21.30;51.64;101333.39;451052;117;932192;-76
2021/07/08 00:40:43;;;;;;;2.33;0.91;;;;;;;21.29;51.71;101334.49;451165;116;925548;-77
2021/07/08 00:41:46;;;;;;;3.51;1.03;;;;;;;21.29;51.66;101338.11;449864;115;924634;-75
2021/07/08 00:42:51;;;;;;;3.30;1.03;;;;;;;21.27;51.89;101343.11;451215;115;924639;-77
2021/07/08 00:43:56;;;;;;;2.33;0.92;;;;;;;21.28;52.30;101339.20;451889;117;923924;-77
2021/07/08 00:44:59;;;;;;;1.85;0.96;;;;;;;21.26;51.64;101340.59;450985;115;923607;-77
2021/07/08 00:46:04;;;;;;;2.67;1.02;;;;;;;21.26;51.47;101346.14;451195;115;931209;-77
2021/07/08 00:47:08;;;;;;;2.04;0.90;;;;;;;21.24;51.22;101343.62;452261;115;930979;-76
2021/07/08 00:48:12;;;;;;;1.36;0.86;;;;;;;21.22;51.38;101334.75;451799;116;923609;-78
2021/07/08 00:49:16;;;;;;;3.86;1.12;;;;;;;21.21;51.34;101344.17;451347;115;923977;-75
2021/07/08 00:50:27;;;;;;;2.22;0.92;;;;;;;21.21;51.60;101345.02;451520;115;924031;-78
2021/07/08 00:51:31;;;;;;;1.69;0.68;;;;;;;21.19;51.78;101341.66;451671;117;932998;-78
2021/07/08 00:52:34;;;;;;;2.31;0.76;;;;;;;21.19;51.66;101347.20;451883;117;923765;-78
2021/07/08 00:53:38;;;;;;;1.58;0.93;;;;;;;21.19;51.49;101349.14;451146;116;922546;-78
2021/07/08 00:54:58;;;;;;;;;;;;;;;21.17;51.34;101341.08;454812;115;922170;-78
2021/07/08 00:56:03;;;;;;;2.70;0.76;;;;;;;21.17;51.50;101345.81;452057;117;922644;-78
2021/07/08 00:57:07;;;;;;;2.80;0.88;;;;;;;21.14;51.62;101344.39;449660;115;923289;-78
2021/07/08 00:58:11;;;;;;;3.01;0.92;;;;;;;21.13;51.57;101341.84;451693;115;930362;-78
2021/07/08 00:59:14;;;;;;;1.74;0.69;;;;;;;21.12;51.57;101348.48;451362;115;922511;-78
2021/07/08 01:00:30;;;;;;;3.21;0.83;;;;;;;21.11;51.87;101350.45;443991;118;922624;-78
2021/07/08 01:01:34;;;;;;;2.96;0.93;;;;;;;21.12;52.06;101349.33;445917;115;922987;-77
2021/07/08 01:02:39;;;;;;;3.02;0.80;;;;;;;21.11;52.10;101349.62;451246;115;922495;-78
2021/07/08 01:03:42;;;;;;;3.42;0.94;;;;;;;21.09;52.10;101349.88;451034;116;930195;-78
2021/07/08 01:04:48;;;;;;;3.18;1.19;;;;;;;21.07;52.29;101351.23;451453;115;922464;-78
2021/07/08 01:05:54;;;;;;;2.29;0.96;;;;;;;21.06;52.39;101355.13;451838;113;922465;-78
2021/07/08 01:06:58;;;;;;;2.46;1.06;;;;;;;21.06;52.38;101346.81;451439;115;922705;-78
2021/07/08 01:08:01;;;;;;;1.81;1.03;;;;;;;21.03;52.60;101359.25;451772;115;922380;-78
2021/07/08 01:09:05;;;;;;;1.57;0.85;;;;;;;21.03;52.93;101350.94;451657;117;923212;-76
2021/07/08 01:10:09;;;;;;;6.62;1.02;;;;;;;21.03;53.22;101350.94;451222;117;931732;-77
2021/07/08 01:11:13;;;;;;;2.52;0.99;;;;;;;21.02;53.11;101356.73;451078;115;923988;-78
2021/07/08 01:12:17;;;;;;;1.61;0.79;;;;;;;21.01;52.97;101350.35;443198;117;923384;-78
2021/07/08 01:13:21;;;;;;;3.23;1.02;;;;;;;21.01;53.20;101355.90;443189;117;924067;-78
2021/07/08 01:14:25;;;;;;;1.42;0.91;;;;;;;21.00;53.21;101347.87;451220;117;924607;-77
2021/07/08 01:15:29;;;;;;;1.85;0.88;;;;;;;20.97;53.33;101349.22;451450;115;924561;-77
2021/07/08 01:16:33;;;;;;;1.17;0.89;;;;;;;;;;451261;115;932619;-76
2021/07/08 01:17:39;;;;;;;2.31;0.84;;;;;;;20.95;53.31;101350.60;450880;117;924087;-76
2021/07/08 01:18:42;;;;;;;2.87;1.02;;;;;;;20.94;53.05;101348.92;451746;115;924137;-78
2021/07/08 01:19:46;;;;;;;2.52;0.97;;;;;;;20.93;52.67;101355.56;451376;115;924114;-78
2021/07/08 01:20:51;;;;;;;3.31;1.09;;;;;;;20.92;52.94;101360.27;450894;113;931715;-76
2021/07/08 01:21:55;;;;;;;3.81;0.91;;;;;;;20.92;52.89;101354.73;450958;117;926859;-76
2021/07/08 01:22:59;;;;;;;1.76;1.06;;;;;;;20.92;53.01;101353.89;451740;115;931746;-77
2021/07/08 01:24:05;;;;;;;3.50;1.13;;;;;;;20.92;53.10;101364.98;451259;116;931704;-75
2021/07/08 01:25:12;;;;;;;2.81;0.99;;;;;;;20.92;52.86;101360.27;451093;117;931119;-77
2021/07/08 01:26:16;;;;;;;1.88;0.92;;;;;;;20.93;52.58;101356.41;451509;115;924186;-79
2021/07/08 01:27:20;;;;;;;3.23;1.14;;;;;;;20.93;52.23;101359.17;451803;116;922794;-75
2021/07/08 01:28:23;;;;;;;2.85;1.19;;;;;;;20.93;52.27;101359.17;451873;116;932928;-78
2021/07/08 01:29:28;;;;;;;4.56;0.89;;;;;;;20.94;52.50;101366.40;451670;115;926423;-78
2021/07/08 01:30:34;;;;;;;2.95;0.72;;;;;;;20.94;52.38;101362.78;452139;116;930136;-79
2021/07/08 01:31:38;;;;;;;1.15;0.76;;;;;;;20.95;52.05;101372.78;452030;115;924221;-75
2021/07/08 01:32:42;;;;;;;1.93;1.24;;;;;;;20.94;51.61;101362.78;452084;116;926254;-78
2021/07/08 01:33:48;;;;;;;7.78;1.32;;;;;;;20.92;51.56;101371.36;451755;116;924030;-78
2021/07/08 01:34:52;;;;;;;1.43;0.80;;;;;;;20.92;51.50;101370.52;452627;116;923927;-78
2021/07/08 01:35:55;;;;;;;0.98;0.86;;;;;;;20.91;51.53;101366.07;452270;115;924543;-78
2021/07/08 01:36:59;;;;;;;1.71;0.82;;;;;;;20.91;51.70;101371.61;451827;115;931645;-78
2021/07/08 01:38:03;;;;;;;9.24;1.62;;;;;;;20.90;51.98;101375.48;452063;115;931744;-78
2021/07/08 01:39:06;;;;;;;3.16;1.14;;;;;;;20.88;52.20;101367.45;451742;115;932036;-76
2021/07/08 01:40:13;;;;;;;2.02;0.84;;;;;;;20.87;51.81;101374.09;451242;116;925110;-78
2021/07/08 01:41:18;;;;;;;1.64;0.78;;;;;;;20.85;52.34;101372.67;451822;114;924677;-79
2021/07/08 01:42:25;;;;;;;3.62;0.94;;;;;;;20.83;52.31;101369.34;451925;116;922395;-78
2021/07/08 01:43:28;;;;;;;1.81;1.16;;;;;;;20.83;52.04;101374.89;453223;117;922524;-78
2021/07/08 01:44:32;;;;;;;2.58;0.92;;;;;;;20.82;51.92;101374.05;452156;115;922530;-76
2021/07/08 01:45:36;;;;;;;2.43;0.89;;;;;;;20.81;51.81;101378.75;452598;116;930246;-77
2021/07/08 01:46:40;;;;;;;2.12;0.96;;;;;;;20.81;51.93;101372.37;453071;117;930228;-78
2021/07/08 01:47:46;;;;;;;7.25;0.85;;;;;;;20.82;51.89;101376.82;445088;117;922685;-77
2021/07/08 01:48:50;;;;;;;3.59;0.99;;;;;;;20.81;52.38;101375.98;446024;117;923083;-78
2021/07/08 01:49:54;;;;;;;3.08;1.17;;;;;;;20.81;52.47;101384.30;452309;116;922499;-77
2021/07/08 01:51:02;;;;;;;2.86;1.20;;;;;;;20.82;52.22;101382.36;452941;113;922996;-77
2021/07/08 01:52:06;;;;;;;2.59;1.08;;;;;;;20.82;52.27;101379.59;452651;115;922695;-78
2021/07/08 01:53:10;;;;;;;3.66;1.18;;;;;;;20.82;52.54;101382.36;452680;116;922608;-78
2021/07/08 01:54:14;;;;;;;1.24;0.91;;;;;;;20.82;52.17;101382.36;451977;116;922555;-77
2021/07/08 01:55:18;;;;;;;1.66;1.04;;;;;;;20.82;52.21;101382.36;453127;115;922588;-78
2021/07/08 01:56:22;;;;;;;2.75;1.12;;;;;;;20.83;52.40;101377.66;452804;115;922416;-78
2021/07/08 01:57:26;;;;;;;2.19;0.99;;;;;;;20.82;52.53;101385.14;445203;117;930328;-77
2021/07/08 01:58:30;;;;;;;3.85;1.00;;;;;;;20.81;52.88;101375.98;446941;117;922645;-77
2021/07/08 01:59:34;;;;;;;1.64;1.09;;;;;;;20.80;53.12;101381.78;453221;117;930185;-78
2021/07/08 02:00:39;;;;;;;2.54;1.03;;;;;;;20.78;53.33;101381.23;452011;116;923143;-77
2021/07/08 02:01:43;;;;;;;4.34;1.01;;;;;;;20.78;53.63;101389.55;452174;116;924307;-78
2021/07/08 02:02:46;;;;;;;3.70;1.06;;;;;;;20.78;53.75;101384.00;452916;116;927153;-77
2021/07/08 02:03:51;;;;;;;1.24;0.83;;;;;;;20.77;53.41;101388.70;453106;116;922464;-78
2021/07/08 02:04:54;;;;;;;1.29;0.87;;;;;;;20.77;53.54;101394.25;452568;116;923254;-78
2021/07/08 02:05:59;;;;;;;2.89;1.25;;;;;;;20.76;53.70;101391.73;452242;116;930583;-78
2021/07/08 02:07:03;;;;;;;2.09;0.96;;;;;;;20.76;53.45;101392.56;451604;115;931807;-78
2021/07/08 02:08:10;;;;;;;1.86;1.03;;;;;;;20.75;52.62;101392.82;451771;117;924104;-78
2021/07/08 02:09:21;;;;;;;5.01;1.12;;;;;;;20.73;52.26;101395.04;451790;116;925695;-77
2021/07/08 02:10:25;;;;;;;1.42;0.92;;;;;;;20.70;52.11;101395.55;451973;116;924112;-78
2021/07/08 02:11:29;;;;;;;2.53;0.88;;;;;;;20.69;52.35;101393.87;451557;114;924996;-76
2021/07/08 02:12:33;;;;;;;1.34;0.74;;;;;;;20.69;52.50;101399.41;451360;115;931791;-78
2021/07/08 02:13:38;;;;;;;2.61;0.89;;;;;;;20.67;52.81;101391.38;451913;115;923067;-77
2021/07/08 02:14:42;;;;;;;1.34;0.68;;;;;;;20.68;52.28;101400.50;452707;115;926743;-78
2021/07/08 02:15:46;;;;;;;2.36;0.80;;;;;;;20.67;52.60;101394.16;452759;115;924138;-78
2021/07/08 02:16:50;;;;;;;6.59;1.00;;;;;;;20.68;52.69;101400.50;452673;117;924016;-78
2021/07/08 02:17:54;;;;;;;1.86;0.88;;;;;;;20.70;52.59;101409.41;452186;116;926008;-78
2021/07/08 02:18:57;;;;;;;5.75;1.62;;;;;;;20.71;52.88;101406.37;451629;116;931586;-77
2021/07/08 02:20:01;;;;;;;3.29;0.72;;;;;;;20.74;53.29;101400.30;452448;117;931990;-79
2021/07/08 02:21:05;;;;;;;2.19;0.84;;;;;;;20.75;53.22;101409.45;452574;117;927159;-77
2021/07/08 02:22:09;;;;;;;2.05;0.88;;;;;;;20.75;52.56;101412.22;451558;115;931154;-76
2021/07/08 02:23:12;;;;;;;0.87;0.76;;;;;;;20.74;52.62;101407.77;450759;115;924247;-77
2021/07/08 02:24:16;;;;;;;3.12;1.17;;;;;;;20.74;52.65;101413.31;454600;116;931559;-78
2021/07/08 02:25:20;;;;;;;2.71;0.86;;;;;;;20.74;52.54;101407.77;453761;114;923948;-78
2021/07/08 02:26:24;;;;;;;2.66;1.13;;;;;;;20.75;52.22;101414.99;450137;115;931713;-77
2021/07/08 02:27:28;;;;;;;4.19;1.19;;;;;;;20.73;52.18;101409.70;429559;121;923377;-78
2021/07/08 02:28:32;;;;;;;1.89;0.84;;;;;;;20.75;52.55;101412.22;448209;115;922564;-77
2021/07/08 02:29:35;;;;;;;3.59;1.05;;;;;;;20.73;52.73;101406.93;455748;114;931764;-78
2021/07/08 02:30:39;;;;;;;3.78;0.96;;;;;;;20.73;53.07;101408.90;455811;114;922814;-78
2021/07/08 02:31:43;;;;;;;3.54;0.90;;;;;;;20.73;52.97;101415.25;455540;115;922804;-78
2021/07/08 02:32:48;;;;;;;1.83;0.75;;;;;;;20.74;52.85;101416.09;455323;115;931664;-77
2021/07/08 02:33:53;;;;;;;3.07;0.96;;;;;;;20.75;52.59;101417.77;454247;115;924146;-77
2021/07/08 02:34:56;;;;;;;0.99;0.86;;;;;;;20.75;52.31;101417.77;454787;114;923029;-77
2021/07/08 02:36:02;;;;;;;2.29;0.96;;;;;;;20.75;51.75;101413.06;454584;115;931655;-78
2021/07/08 02:37:08;;;;;;;1.75;1.00;;;;;;;20.75;51.51;101413.06;455509;115;924002;-78
2021/07/08 02:38:11;;;;;;;2.65;1.14;;;;;;;20.78;51.50;101418.06;456134;114;925624;-79
2021/07/08 02:39:15;;;;;;;2.67;0.90;;;;;;;20.79;51.47;101418.91;456299;114;924534;-78
2021/07/08 02:40:22;;;;;;;2.27;1.46;;;;;;;20.80;51.34;101423.36;447437;117;932671;-78
2021/07/08 02:41:26;;;;;;;2.54;0.90;;;;;;;20.80;51.23;101421.42;447864;116;924915;-77
2021/07/08 02:42:29;;;;;;;3.22;2.12;;;;;;;20.80;51.06;101418.66;440485;118;924111;-77
2021/07/08 02:43:33;;;;;;;2.20;1.51;;;;;;;20.81;51.13;101414.79;441798;117;924078;-77
2021/07/08 02:44:37;;;;;;;1.24;1.13;;;;;;;20.82;51.00;101418.40;434969;121;923239;-77
2021/07/08 02:45:43;;;;;;;1.30;1.18;;;;;;;20.83;50.70;101424.78;435170;119;922602;-77
2021/07/08 02:46:47;;;;;;;5.93;1.24;;;;;;;20.81;50.78;101425.03;442301;118;930266;-77
2021/07/08 02:47:52;;;;;;;1.85;1.59;;;;;;;20.79;51.16;101428.06;441974;119;922452;-77
2021/07/08 02:48:56;;;;;;;3.16;1.39;;;;;;;20.80;51.22;101426.97;442220;119;930141;-77
2021/07/08 02:50:00;;;;;;;2.52;1.51;;;;;;;20.81;51.17;101434.19;442521;119;922581;-78
2021/07/08 02:51:03;;;;;;;1.43;1.12;;;;;;;20.82;51.03;101432.26;434951;120;922632;-77
2021/07/08 02:52:07;;;;;;;1.22;0.91;;;;;;;20.84;50.96;101427.27;448485;115;930331;-77
2021/07/08 02:53:11;;;;;;;3.27;1.27;;;;;;;20.87;50.92;101431.47;456273;115;930379;-77
2021/07/08 02:54:15;;;;;;;1.79;0.90;;;;;;;20.89;50.89;101432.05;456348;114;922997;-78
2021/07/08 02:55:20;;;;;;;1.23;0.97;;;;;;;20.89;50.93;101435.66;455368;114;931744;-76
2021/07/08 02:56:24;;;;;;;2.07;0.88;;;;;;;20.92;50.95;101431.52;455215;114;923167;-79
2021/07/08 02:57:28;;;;;;;1.46;1.25;;;;;;;20.94;51.03;101440.42;454522;114;926969;-79
2021/07/08 02:58:32;;;;;;;2.54;1.15;;;;;;;;;;454026;115;923125;-79
2021/07/08 02:59:36;;;;;;;3.31;1.46;;;;;;;20.97;50.81;101437.94;454803;114;924005;-76
2021/07/08 03:00:42;;;;;;;2.86;1.33;;;;;;;20.98;50.74;101439.63;455737;115;930373;-78
2021/07/08 03:01:45;;;;;;;4.26;1.44;;;;;;;20.99;50.80;101441.30;456975;114;924015;-77
2021/07/08 03:02:49;;;;;;;3.86;1.35;;;;;;;21.01;50.81;101439.08;457386;114;927482;-78
2021/07/08 03:03:54;;;;;;;1.59;1.04;;;;;;;21.01;50.80;101439.08;455749;114;931691;-78
2021/07/08 03:04:57;;;;;;;3.12;1.17;;;;;;;21.01;50.70;101432.70;456827;114;924147;-79
2021/07/08 03:06:01;;;;;;;2.14;1.39;;;;;;;21.00;50.86;101437.44;455650;114;931676;-77
2021/07/08 03:07:04;;;;;;;1.67;1.20;;;;;;;21.01;50.76;101441.85;457031;114;928318;-80
2021/07/08 03:08:08;;;;;;;3.37;0.90;;;;;;;21.02;50.62;101445.47;456945;114;922942;-79
2021/07/08 03:09:12;;;;;;;1.59;1.27;;;;;;;21.03;50.67;101445.21;457217;114;931786;-77
2021/07/08 03:10:18;;;;;;;2.84;1.89;;;;;;;21.04;50.74;101446.05;456419;114;930285;-78
2021/07/08 03:11:23;;;;;;;2.29;1.52;;;;;;;21.05;50.69;101440.25;456254;115;923889;-77
2021/07/08 03:12:27;;;;;;;3.89;1.22;;;;;;;21.07;50.61;101446.35;455208;114;924088;-78
2021/07/08 03:13:31;;;;;;;3.84;1.12;;;;;;;21.07;50.64;101451.89;455311;114;922623;-78
2021/07/08 03:14:35;;;;;;;1.95;1.11;;;;;;;21.09;50.62;101451.64;455809;115;931541;-79
2021/07/08 03:15:39;;;;;;;1.86;1.10;;;;;;;21.09;50.55;101446.94;456712;115;922612;-80
2021/07/08 03:16:43;;;;;;;1.52;0.83;;;;;;;21.10;50.35;101445.84;455006;113;922500;-76
2021/07/08 03:17:47;;;;;;;1.39;0.79;;;;;;;21.11;50.12;101449.45;455609;114;933105;-78
2021/07/08 03:18:51;;;;;;;3.35;1.08;;;;;;;21.10;50.19;101454.16;455365;115;931706;-80
2021/07/08 03:19:54;;;;;;;3.15;1.29;;;;;;;21.11;50.22;101452.23;454757;115;923922;-77
2021/07/08 03:20:58;;;;;;;2.92;1.58;;;;;;;21.11;50.26;101450.30;455806;114;927773;-78
2021/07/08 03:22:02;;;;;;;3.31;1.91;;;;;;;21.11;50.33;101447.52;454845;114;930360;-77
2021/07/08 03:23:06;;;;;;;3.04;2.63;;;;;;;21.12;50.40;101446.39;456052;114;933001;-77
2021/07/08 03:24:10;;;;;;;3.48;3.02;;;;;;;21.13;50.40;101439.75;457805;115;926694;-77
2021/07/08 03:25:16;;;;;;;2.42;2.16;;;;;;;21.15;50.48;101450.63;456124;114;924026;-79
2021/07/08 03:26:21;;;;;;;2.62;1.53;;;;;;;21.15;50.45;101448.69;456110;115;924040;-78
2021/07/08 03:27:25;;;;;;;3.44;1.29;;;;;;;21.16;50.44;101452.30;456432;114;923811;-77
2021/07/08 03:28:29;;;;;;;4.81;1.15;;;;;;;21.17;50.43;101454.79;455417;114;932396;-77
2021/07/08 03:29:32;;;;;;;2.50;1.08;;;;;;;21.18;50.53;101450.92;455325;114;928054;-78
2021/07/08 03:30:36;;;;;;;3.19;1.13;;;;;;;21.19;50.53;101452.59;456504;114;930155;-77
2021/07/08 03:31:40;;;;;;;3.14;1.09;;;;;;;21.19;50.36;101452.59;457367;115;923124;-78
2021/07/08 03:32:44;;;;;;;1.85;1.22;;;;;;;21.20;50.19;101453.44;456980;114;930202;-78
2021/07/08 03:33:48;;;;;;;1.75;1.04;;;;;;;21.19;50.26;101452.59;456427;115;922671;-78
2021/07/08 03:34:52;;;;;;;3.86;1.19;;;;;;;21.18;50.20;101450.92;456148;115;923874;-79
2021/07/08 03:35:55;;;;;;;1.77;1.01;;;;;;;21.19;50.36;101449.83;455486;115;923854;-76
2021/07/08 03:36:59;;;;;;;3.26;1.32;;;;;;;21.19;50.26;101451.76;454330;115;924067;-77
2021/07/08 03:38:03;;;;;;;3.62;1.14;;;;;;;21.18;50.32;101453.69;455797;114;924489;-78
2021/07/08 03:39:07;;;;;;;2.08;1.02;;;;;;;21.18;50.35;101456.47;454860;114;932560;-76
2021/07/08 03:40:14;;;;;;;2.10;1.08;;;;;;;21.19;50.40;101460.08;455752;115;923085;-78
2021/07/08 03:41:17;;;;;;;1.16;0.98;;;;;;;21.19;50.50;101463.70;455460;114;922526;-78
2021/07/08 03:42:21;;;;;;;2.15;1.01;;;;;;;21.23;50.56;101468.73;454844;115;923310;-78
2021/07/08 03:43:24;;;;;;;3.64;1.37;;;;;;;21.23;50.63;101456.51;453835;114;930323;-77
2021/07/08 03:44:28;;;;;;;2.09;1.02;;;;;;;21.25;50.83;101458.19;457704;115;922492;-78
2021/07/08 03:45:32;;;;;;;3.69;1.13;;;;;;;21.26;51.00;101466.25;450344;117;930279;-78
2021/07/08 03:46:37;;;;;;;3.88;1.25;;;;;;;21.28;50.82;101458.48;448818;115;930620;-77
2021/07/08 03:47:42;;;;;;;3.75;1.24;;;;;;;21.30;50.72;101461.84;457403;115;922972;-78
2021/07/08 03:48:46;;;;;;;4.57;1.11;;;;;;;21.30;50.69;101463.77;456439;115;922478;-78
2021/07/08 03:49:50;;;;;;;1.64;1.07;;;;;;;21.33;50.54;101457.72;456557;115;924042;-77
2021/07/08 03:50:54;;;;;;;3.49;1.14;;;;;;;21.33;50.58;101457.72;455230;115;931574;-78
2021/07/08 03:51:58;;;;;;;3.44;1.45;;;;;;;21.34;50.61;101459.36;455792;115;925473;-78
2021/07/08 03:53:01;;;;;;;4.46;1.22;;;;;;;21.35;50.60;101461.88;456520;115;931690;-77
2021/07/08 03:54:06;;;;;;;5.22;1.32;;;;;;;21.37;50.58;101461.63;454191;115;932078;-78
2021/07/08 03:55:14;;;;;;;3.38;1.57;;;;;;;21.39;50.61;101464.98;454706;114;931829;-80
2021/07/08 03:56:18;;;;;;;3.01;1.32;;;;;;;21.41;50.75;101468.30;455979;114;925385;-78
2021/07/08 03:57:23;;;;;;;3.06;1.08;;;;;;;21.43;50.79;101460.56;455735;115;924050;-80
2021/07/08 03:58:26;;;;;;;3.35;1.35;;;;;;;21.45;50.71;101466.66;454921;115;923116;-76
2021/07/08 03:59:30;;;;;;;3.76;1.11;;;;;;;21.47;50.58;101467.25;454399;115;924497;-77
2021/07/08 04:00:37;;;;;;;4.06;1.23;;;;;;;21.47;50.70;101467.25;455859;114;931698;-76
2021/07/08 04:01:41;;;;;;;2.74;1.26;;;;;;;21.49;50.69;101471.45;446630;116;924861;-78
2021/07/08 04:02:45;;;;;;;1.55;0.98;;;;;;;21.50;50.49;101464.77;447311;115;923370;-77
2021/07/08 04:03:49;;;;;;;7.21;0.99;;;;;;;21.51;50.48;101468.38;445309;117;925174;-78
2021/07/08 04:04:53;;;;;;;3.19;1.61;;;;;;;21.52;50.35;101467.28;429087;121;925631;-77
2021/07/08 04:05:57;;;;;;;4.98;1.56;;;;;;;21.53;50.03;101468.97;429918;121;931656;-78
2021/07/08 04:07:00;;;;;;;5.59;3.89;;;;;;;21.54;49.98;101473.42;435564;119;923982;-77
2021/07/08 04:08:06;;;;;;;8.39;4.36;;;;;;;21.53;49.99;101472.58;434076;121;924590;-79
2021/07/08 04:09:09;;;;;;;3.12;2.68;;;;;;;21.53;49.85;101477.29;439332;120;932009;-78
2021/07/08 04:10:14;;;;;;;4.81;4.19;;;;;;;21.54;49.89;101473.42;447007;116;924023;-78
2021/07/08 04:11:18;;;;;;;3.62;1.58;;;;;;;21.55;49.93;101475.09;438512;118;922472;-79
2021/07/08 04:12:21;;;;;;;3.03;1.73;;;;;;;21.57;49.98;101475.65;446162;117;925143;-78
2021/07/08 04:13:25;;;;;;;5.26;1.72;;;;;;;21.58;49.81;101477.33;447321;118;930316;-76
2021/07/08 04:14:28;;;;;;;1.84;1.36;;;;;;;21.59;49.76;101479.00;434804;119;932323;-76
2021/07/08 04:15:33;;;;;;;3.54;1.27;;;;;;;21.60;49.87;101484.30;440038;119;931683;-78
2021/07/08 04:16:36;;;;;;;3.73;1.20;;;;;;;21.60;50.04;101484.30;442289;119;932444;-77
2021/07/08 04:17:41;;;;;;;3.64;1.71;;;;;;;21.63;50.13;101480.14;442682;119;924064;-78
2021/07/08 04:18:45;;;;;;;4.16;1.54;;;;;;;21.63;50.23;101478.20;442656;117;923536;-77
2021/07/08 04:19:48;;;;;;;2.12;1.12;;;;;;;21.64;49.87;101481.81;442475;117;924101;-77
2021/07/08 04:20:52;;;;;;;6.99;1.24;;;;;;;21.66;49.86;101482.40;441850;119;931851;-78
2021/07/08 04:21:56;;;;;;;2.20;1.99;;;;;;;21.67;49.73;101486.82;442492;119;929513;-78
2021/07/08 04:23:00;;;;;;;3.61;3.30;;;;;;;21.69;49.61;101481.84;442130;119;924181;-77
2021/07/08 04:24:04;;;;;;;2.55;1.92;;;;;;;21.69;49.48;101484.63;443260;117;922725;-77
2021/07/08 04:25:09;;;;;;;7.95;2.32;;;;;;;21.71;49.51;101476.88;442256;117;924728;-78
2021/07/08 04:26:14;;;;;;;3.43;3.01;;;;;;;21.72;49.55;101484.11;442816;119;922477;-79
2021/07/08 04:27:18;;;;;;;2.60;1.73;;;;;;;21.74;49.65;101483.82;443241;117;922644;-78
2021/07/08 04:28:22;;;;;;;1.86;1.24;;;;;;;21.74;49.84;101487.44;451575;115;922513;-78
2021/07/08 04:29:25;;;;;;;2.23;1.83;;;;;;;21.75;49.66;101489.11;451400;116;922510;-79
2021/07/08 04:30:30;;;;;;;2.61;1.47;;;;;;;21.75;49.59;101491.05;451947;117;930279;-76
2021/07/08 04:31:33;;;;;;;2.49;1.27;;;;;;;21.76;49.64;101488.02;451767;115;922802;-78
2021/07/08 04:32:37;;;;;;;4.35;1.32;;;;;;;21.77;49.53;101486.91;451551;116;922615;-80
2021/07/08 04:33:41;;;;;;;1.84;1.46;;;;;;;21.78;49.60;101496.05;451326;116;923248;-80
2021/07/08 04:34:45;;;;;;;1.83;1.54;;;;;;;21.80;49.57;101491.92;452032;117;930201;-78
2021/07/08 04:35:49;;;;;;;2.32;0.78;;;;;;;21.81;49.54;101498.31;451841;115;922649;-77
2021/07/08 04:36:53;;;;;;;1.94;1.07;;;;;;;21.82;49.40;101495.28;451447;116;922494;-80
2021/07/08 04:37:58;;;;;;;2.87;1.31;;;;;;;21.83;49.38;101494.15;451630;116;922587;-78
2021/07/08 04:39:03;;;;;;;3.34;1.15;;;;;;;21.85;49.44;101493.89;452088;117;922473;-77
2021/07/08 04:40:09;;;;;;;2.46;0.99;;;;;;;21.86;49.65;101501.96;445849;118;922477;-77
2021/07/08 04:41:13;;;;;;;3.15;1.33;;;;;;;21.88;49.69;101490.59;445674;117;923127;-77
2021/07/08 04:42:17;;;;;;;4.01;1.05;;;;;;;21.89;49.72;101495.86;451503;116;922720;-79
2021/07/08 04:43:21;;;;;;;3.05;1.34;;;;;;;21.91;49.69;101501.16;444174;118;931783;-77
2021/07/08 04:44:24;;;;;;;1.84;0.86;;;;;;;21.93;49.66;101499.80;445107;116;924499;-77
2021/07/08 04:45:29;;;;;;;1.82;1.14;;;;;;;21.94;49.61;101501.47;450620;116;931733;-78
2021/07/08 04:46:33;;;;;;;1.77;0.98;;;;;;;21.94;49.78;101504.25;451470;116;922564;-78
2021/07/08 04:47:38;;;;;;;1.89;1.05;;;;;;;21.95;49.75;101502.31;452115;116;922433;-78
2021/07/08 04:48:43;;;;;;;3.09;1.20;;;;;;;21.95;49.80;101494.82;451146;116;924102;-78
2021/07/08 04:49:47;;;;;;;2.34;1.17;;;;;;;21.97;49.82;101497.34;451154;116;923012;-77
2021/07/08 04:50:51;;;;;;;3.52;1.53;;;;;;;21.98;50.01;101499.02;451812;116;923975;-78
2021/07/08 04:51:55;;;;;;;1.69;1.32;;;;;;;21.98;49.82;101499.86;451439;117;925471;-78
2021/07/08 04:52:58;;;;;;;3.10;1.11;;;;;;;22.00;49.65;101503.18;451475;115;924078;-78
2021/07/08 04:54:04;;;;;;;5.47;1.77;;;;;;;22.02;49.65;101497.37;450794;115;930249;-77
2021/07/08 04:55:09;;;;;;;3.68;1.26;;;;;;;22.03;49.94;101497.11;452349;115;924506;-77
2021/07/08 04:56:14;;;;;;;4.63;1.11;;;;;;;22.06;49.94;101501.27;451941;115;926212;-78
2021/07/08 04:57:18;;;;;;;4.12;1.68;;;;;;;22.08;49.99;101503.79;451103;115;924060;-76